Time;durP1;ratioP1;P1;durP2;ratioP2;P2;SDS_P1;SDS_P2;PMS_P1;PMS_P2;Temp;Humidity;BMP_temperature;BMP_pressure;BME280_temperature;BME280_humidity;BME280_pressure;Samples;Min_cycle;Max_cycle;Signal;HPM_P1;HPM_P2
2022/06/01 00:01:11;;;;;;;14.73;10.77;;;;;;;;;;5000333;28;20054;-60
2022/06/01 00:03:44;;;;;;;17.80;12.95;;;;;;;;;;4997774;28;20657;-55
2022/06/01 00:06:11;;;;;;;18.13;13.32;;;;;;;;;;5004129;28;20143;-53
2022/06/01 00:08:38;;;;;;;20.88;14.20;;;;;;;;;;4998845;28;20094;-54
2022/06/01 00:11:11;;;;;;;25.13;14.30;;;;;;;;;;5001608;28;20085;-53
2022/06/01 00:13:38;;;;;;;25.23;15.30;;;;;;;;;;5003450;28;20596;-53
2022/06/01 00:16:05;;;;;;;24.63;16.02;;;;;;;;;;5000626;28;20413;-54
2022/06/01 00:18:38;;;;;;;21.50;14.85;;;;;;;;;;4997910;28;20057;-60
2022/06/01 00:21:07;;;;;;;20.73;13.35;;;;;;;;;;5001059;28;20088;-59
2022/06/01 00:23:33;;;;;;;15.38;11.18;;;;;;;;;;4994147;28;20071;-59
2022/06/01 00:26:06;;;;;;;18.80;10.88;;;;;;;;;;4998302;28;20120;-59
2022/06/01 00:28:33;;;;;;;18.50;12.50;;;;;;;;;;5001751;28;20055;-59
2022/06/01 00:30:59;;;;;;;19.33;13.07;;;;;;;;;;4999754;28;20088;-60
2022/06/01 00:33:32;;;;;;;21.05;13.75;;;;;;;;;;5004495;28;20050;-59
2022/06/01 00:35:59;;;;;;;22.95;15.25;;;;;;;;;;4999240;28;20092;-59
2022/06/01 00:38:25;;;;;;;22.17;14.77;;;;;;;;;;5000820;28;20096;-58
2022/06/01 00:40:58;;;;;;;25.00;16.83;;;;;;;;;;5001441;28;20485;-59
2022/06/01 00:43:26;;;;;;;29.20;18.02;;;;;;;;;;4999868;28;20058;-60
2022/06/01 00:45:53;;;;;;;25.33;16.15;;;;;;;;;;5002477;28;20062;-59
2022/06/01 00:48:33;;;;;;;30.15;17.90;;;;;;;;;;5000028;28;20054;-59
2022/06/01 00:51:00;;;;;;;25.33;17.20;;;;;;;;;;5001880;28;20054;-59
2022/06/01 00:53:35;;;;;;;31.23;18.50;;;;;;;;;;5002908;28;20077;-59
2022/06/01 00:56:03;;;;;;;25.80;17.42;;;;;;;;;;4999793;28;20109;-59
2022/06/01 00:58:34;;;;;;;31.50;19.25;;;;;;;;;;4999017;28;20077;-60
2022/06/01 01:01:11;;;;;;;31.10;19.10;;;;;;;;;;5002557;28;20129;-70
2022/06/01 01:03:39;;;;;;;25.75;16.30;;;;;;;;;;5001650;28;20085;-70
2022/06/01 01:06:23;;;;;;;30.20;18.75;;;;;;;;;;5001462;28;20092;-70
2022/06/01 01:08:58;;;;;;;26.13;18.58;;;;;;;;;;5001816;28;20054;-70
2022/06/01 01:11:35;;;;;;;33.28;18.38;;;;;;;;;;5001840;28;20046;-70
2022/06/01 01:14:08;;;;;;;28.02;16.08;;;;;;;;;;4997528;28;20489;-70
2022/06/01 01:16:35;;;;;;;29.45;19.25;;;;;;;;;;5000413;28;20058;-59
2022/06/01 01:19:02;;;;;;;34.47;20.45;;;;;;;;;;4999544;28;20054;-60
2022/06/01 01:21:46;;;;;;;32.50;19.25;;;;;;;;;;5001586;28;20085;-59
2022/06/01 01:24:19;;;;;;;34.05;20.42;;;;;;;;;;5000095;28;20145;-59
2022/06/01 01:26:52;;;;;;;36.85;19.00;;;;;;;;;;4996772;28;20078;-60
2022/06/01 01:29:39;;;;;;;29.43;18.60;;;;;;;;;;4999879;28;20123;-59
2022/06/01 01:32:13;;;;;;;31.17;17.88;;;;;;;;;;4997691;28;20457;-60
2022/06/01 01:34:40;;;;;;;34.17;20.58;;;;;;;;;;5003011;28;20112;-60
2022/06/01 01:37:17;;;;;;;33.67;19.95;;;;;;;;;;4999626;28;20113;-55
2022/06/01 01:39:52;;;;;;;36.03;20.83;;;;;;;;;;4998680;28;20510;-59
2022/06/01 01:42:19;;;;;;;30.05;19.23;;;;;;;;;;5000348;28;20509;-58
2022/06/01 01:44:55;;;;;;;37.17;20.50;;;;;;;;;;4999585;28;20111;-58
2022/06/01 01:47:36;;;;;;;34.47;20.98;;;;;;;;;;5019702;28;20057;-58
2022/06/01 01:50:07;;;;;;;34.15;21.35;;;;;;;;;;5021125;28;20060;-58
2022/06/01 01:52:41;;;;;;;38.17;21.40;;;;;;;;;;5019830;28;20046;-58
2022/06/01 01:55:08;;;;;;;37.25;21.08;;;;;;;;;;5020058;28;20054;-70
2022/06/01 01:57:50;;;;;;;33.65;20.08;;;;;;;;;;5016244;28;20147;-53
2022/06/01 02:00:24;;;;;;;;;;;;;;;;;;5019217;28;20147;-53
2022/06/01 02:03:13;;;;;;;33.97;19.13;;;;;;;;;;5017717;28;20616;-52
2022/06/01 02:06:04;;;;;;;36.80;20.75;;;;;;;;;;5019094;28;20054;-53
2022/06/01 02:08:41;;;;;;;35.30;22.08;;;;;;;;;;5015641;28;20478;-53
2022/06/01 02:14:18;;;;;;;38.90;21.02;;;;;;;;;;5019373;28;20085;-60
2022/06/01 02:16:57;;;;;;;44.15;22.60;;;;;;;;;;5018290;28;20080;-55
2022/06/01 02:19:26;;;;;;;33.45;20.30;;;;;;;;;;5017765;28;20057;-56
2022/06/01 02:21:59;;;;;;;36.95;20.80;;;;;;;;;;5016402;28;20132;-53
2022/06/01 02:24:26;;;;;;;43.63;21.40;;;;;;;;;;5017646;28;20085;-54
2022/06/01 02:26:54;;;;;;;38.05;23.27;;;;;;;;;;5018010;28;20069;-55
2022/06/01 02:29:34;;;;;;;38.20;22.15;;;;;;;;;;5018274;28;20077;-56
2022/06/01 02:32:02;;;;;;;39.22;21.83;;;;;;;;;;5018897;28;20072;-60
2022/06/01 02:34:37;;;;;;;37.72;21.13;;;;;;;;;;5019768;28;20076;-58
2022/06/01 02:37:05;;;;;;;35.45;20.17;;;;;;;;;;5007356;28;20096;-66
2022/06/01 02:39:32;;;;;;;38.67;20.85;;;;;;;;;;5015244;28;20062;-65
2022/06/01 02:42:28;;;;;;;31.10;17.27;;;;;;;;;;5019501;28;20080;-64
2022/06/01 02:44:55;;;;;;;33.95;19.83;;;;;;;;;;5016439;28;20061;-66
2022/06/01 02:47:37;;;;;;;35.35;20.70;;;;;;;;;;4997452;28;20643;-65
2022/06/01 02:50:08;;;;;;;38.58;20.10;;;;;;;;;;4999459;28;20073;-65
2022/06/01 02:52:41;;;;;;;38.80;21.10;;;;;;;;;;5003264;28;20054;-53
2022/06/01 02:55:08;;;;;;;33.88;18.35;;;;;;;;;;5000134;28;20108;-59
2022/06/01 02:57:36;;;;;;;37.97;19.55;;;;;;;;;;4999331;28;20156;-60
2022/06/01 03:00:17;;;;;;;37.53;20.10;;;;;;;;;;5002133;28;20085;-60
2022/06/01 03:02:44;;;;;;;39.58;20.50;;;;;;;;;;4998910;28;20046;-60
2022/06/01 03:05:18;;;;;;;36.33;19.85;;;;;;;;;;5000380;28;20088;-60
2022/06/01 03:07:45;;;;;;;;;;;;;;;;;;4996910;28;20058;-59
2022/06/01 03:10:11;;;;;;;38.58;19.00;;;;;;;;;;5000834;28;19928;-54
2022/06/01 03:12:45;;;;;;;37.72;20.10;;;;;;;;;;5000177;28;20057;-55
2022/06/01 03:15:13;;;;;;;37.47;20.43;;;;;;;;;;5001532;28;20116;-60
2022/06/01 03:17:39;;;;;;;32.50;16.83;;;;;;;;;;5000554;28;20480;-60
2022/06/01 03:20:15;;;;;;;40.25;20.58;;;;;;;;;;4997161;28;20078;-61
2022/06/01 03:22:43;;;;;;;37.38;19.90;;;;;;;;;;4983963;28;20144;-60
2022/06/01 03:25:18;;;;;;;30.30;16.52;;;;;;;;;;4996283;28;20141;-61
2022/06/01 03:27:59;;;;;;;38.75;19.00;;;;;;;;;;5001187;28;20073;-60
2022/06/01 03:30:26;;;;;;;37.25;19.58;;;;;;;;;;4998928;28;20054;-66
2022/06/01 03:32:59;;;;;;;39.05;19.02;;;;;;;;;;4997845;28;20501;-53
2022/06/01 03:35:29;;;;;;;41.85;19.35;;;;;;;;;;4996927;28;20077;-51
2022/06/01 03:37:57;;;;;;;41.75;18.80;;;;;;;;;;4997331;28;20543;-52
2022/06/01 03:40:34;;;;;;;31.48;17.80;;;;;;;;;;5005475;28;20112;-53
2022/06/01 03:43:00;;;;;;;29.77;18.48;;;;;;;;;;5003898;28;20070;-50
2022/06/01 03:48:28;;;;;;;34.28;16.63;;;;;;;;;;5004091;28;20136;-55
2022/06/01 03:50:55;;;;;;;28.25;16.98;;;;;;;;;;5001084;28;20188;-60
2022/06/01 03:53:29;;;;;;;27.63;15.55;;;;;;;;;;5001926;28;20089;-71
2022/06/01 03:55:56;;;;;;;24.65;14.23;;;;;;;;;;5002473;28;20054;-70
2022/06/01 03:58:23;;;;;;;25.83;15.23;;;;;;;;;;4999393;28;20046;-72
2022/06/01 04:00:56;;;;;;;19.15;13.20;;;;;;;;;;5000193;28;20153;-70
2022/06/01 04:03:23;;;;;;;17.17;11.50;;;;;;;;;;5001806;28;20054;-70
2022/06/01 04:05:49;;;;;;;17.65;10.75;;;;;;;;;;4998157;28;20054;-71
2022/06/01 04:08:22;;;;;;;19.83;10.00;;;;;;;;;;4999931;28;20084;-69
2022/06/01 04:10:49;;;;;;;15.77;9.30;;;;;;;;;;4998858;28;20054;-49
2022/06/01 04:13:15;;;;;;;12.30;7.20;;;;;;;;;;5001812;28;20105;-50
2022/06/01 04:15:49;;;;;;;8.98;6.53;;;;;;;;;;4999854;28;20105;-54
2022/06/01 04:18:15;;;;;;;9.82;6.80;;;;;;;;;;4999097;28;20090;-54
2022/06/01 04:20:42;;;;;;;10.00;5.90;;;;;;;;;;5004261;28;20089;-55
2022/06/01 04:23:15;;;;;;;11.25;5.50;;;;;;;;;;4999589;28;20539;-53
2022/06/01 04:25:41;;;;;;;10.27;5.25;;;;;;;;;;5001373;28;20528;-53
2022/06/01 04:28:08;;;;;;;8.30;5.22;;;;;;;;;;5000668;28;20912;-60
2022/06/01 04:30:41;;;;;;;7.07;4.90;;;;;;;;;;5003317;28;20082;-57
2022/06/01 04:33:08;;;;;;;11.60;5.18;;;;;;;;;;5001893;28;20132;-57
2022/06/01 04:35:34;;;;;;;10.70;4.88;;;;;;;;;;5000306;28;20085;-58
2022/06/01 04:38:13;;;;;;;12.00;5.13;;;;;;;;;;5001204;28;20054;-57
2022/06/01 04:40:41;;;;;;;10.90;4.82;;;;;;;;;;4999121;28;20058;-57
2022/06/01 04:43:16;;;;;;;9.07;4.32;;;;;;;;;;5001167;28;20260;-57
2022/06/01 04:46:02;;;;;;;11.52;4.72;;;;;;;;;;4999646;28;20158;-58
2022/06/01 04:48:35;;;;;;;15.27;4.80;;;;;;;;;;4998902;28;20069;-69
2022/06/01 04:51:02;;;;;;;8.43;4.78;;;;;;;;;;4996739;28;20375;-69
2022/06/01 04:53:29;;;;;;;10.32;4.70;;;;;;;;;;4998690;28;20108;-68
2022/06/01 04:56:02;;;;;;;11.23;4.50;;;;;;;;;;5000218;28;20097;-69
2022/06/01 04:58:29;;;;;;;14.18;4.32;;;;;;;;;;4999723;28;20093;-69
2022/06/01 05:00:56;;;;;;;8.93;4.80;;;;;;;;;;4997442;28;20101;-69
2022/06/01 05:03:29;;;;;;;6.60;4.40;;;;;;;;;;4996989;28;20062;-68
2022/06/01 05:05:56;;;;;;;10.20;5.15;;;;;;;;;;5001546;28;20089;-66
2022/06/01 05:08:22;;;;;;;11.90;4.27;;;;;;;;;;4999898;28;20089;-56
2022/06/01 05:10:55;;;;;;;13.20;4.53;;;;;;;;;;5001341;28;20094;-55
2022/06/01 05:13:22;;;;;;;13.88;4.80;;;;;;;;;;5000877;28;20560;-53
2022/06/01 05:15:50;;;;;;;17.95;5.00;;;;;;;;;;5002169;28;20100;-54
2022/06/01 05:18:24;;;;;;;9.95;4.47;;;;;;;;;;4997779;28;20045;-53
2022/06/01 05:20:51;;;;;;;9.15;4.82;;;;;;;;;;5000098;28;20066;-53
2022/06/01 05:23:17;;;;;;;16.75;4.50;;;;;;;;;;4998654;28;20468;-69
2022/06/01 05:25:51;;;;;;;13.20;3.90;;;;;;;;;;4996252;28;20090;-60
2022/06/01 05:28:18;;;;;;;;;;;;;;;;;;4996301;28;20468;-53
2022/06/01 05:30:44;;;;;;;13.02;4.00;;;;;;;;;;4997192;28;19921;-56
2022/06/01 05:33:22;;;;;;;;;;;;;;;;;;4997118;28;20053;-56
2022/06/01 05:35:49;;;;;;;12.65;3.20;;;;;;;;;;4995900;28;19965;-55
2022/06/01 05:38:15;;;;;;;9.80;4.30;;;;;;;;;;4997011;28;20294;-54
2022/06/01 05:40:48;;;;;;;14.48;4.25;;;;;;;;;;4996370;28;20468;-57
2022/06/01 05:43:15;;;;;;;11.40;4.03;;;;;;;;;;4996460;28;20050;-68
2022/06/01 05:45:42;;;;;;;8.98;3.75;;;;;;;;;;5001833;28;20061;-60
2022/06/01 05:48:17;;;;;;;11.48;3.47;;;;;;;;;;5000676;28;20081;-60
2022/06/01 05:50:44;;;;;;;9.93;3.30;;;;;;;;;;5000518;28;20086;-60
2022/06/01 05:53:10;;;;;;;16.67;3.90;;;;;;;;;;5002090;28;20100;-60
2022/06/01 05:55:43;;;;;;;12.85;3.80;;;;;;;;;;5000886;28;20285;-61
2022/06/01 05:58:20;;;;;;;9.77;3.67;;;;;;;;;;4997104;28;20113;-60
2022/06/01 06:00:54;;;;;;;10.65;3.78;;;;;;;;;;4999369;28;20049;-60
2022/06/01 06:03:23;;;;;;;7.65;3.25;;;;;;;;;;4997585;28;20107;-56
2022/06/01 06:08:47;;;;;;;9.40;3.05;;;;;;;;;;4998761;28;20093;-52
2022/06/01 06:11:20;;;;;;;8.55;2.78;;;;;;;;;;4998665;28;20061;-53
2022/06/01 06:13:46;;;;;;;10.30;3.20;;;;;;;;;;4996454;28;20096;-53
2022/06/01 06:16:19;;;;;;;12.23;3.30;;;;;;;;;;4999195;28;20552;-48
2022/06/01 06:18:46;;;;;;;11.65;3.28;;;;;;;;;;5000583;28;20081;-48
2022/06/01 06:21:13;;;;;;;7.15;3.08;;;;;;;;;;4997609;28;20146;-60
2022/06/01 06:23:46;;;;;;;9.05;3.25;;;;;;;;;;4997224;28;20094;-54
2022/06/01 06:26:13;;;;;;;11.43;3.20;;;;;;;;;;4995969;28;20054;-54
2022/06/01 06:28:39;;;;;;;11.00;2.90;;;;;;;;;;5000292;28;20082;-53
2022/06/01 06:31:12;;;;;;;5.22;2.85;;;;;;;;;;5000444;28;20085;-54
2022/06/01 06:33:40;;;;;;;10.18;3.15;;;;;;;;;;4999149;28;20127;-55
2022/06/01 06:36:07;;;;;;;6.93;2.92;;;;;;;;;;5002590;28;20058;-51
2022/06/01 06:38:41;;;;;;;6.55;2.88;;;;;;;;;;4999728;28;20104;-51
2022/06/01 06:41:08;;;;;;;5.97;2.58;;;;;;;;;;4997285;28;20088;-60
2022/06/01 06:43:35;;;;;;;11.33;3.20;;;;;;;;;;4996713;28;20482;-53
2022/06/01 06:46:23;;;;;;;9.57;3.15;;;;;;;;;;5000819;28;20055;-53
2022/06/01 06:48:56;;;;;;;7.22;2.90;;;;;;;;;;4999042;28;20066;-52
2022/06/01 06:51:34;;;;;;;8.77;3.28;;;;;;;;;;4999832;28;20543;-56
2022/06/01 06:54:01;;;;;;;7.22;3.05;;;;;;;;;;5000952;28;20053;-54
2022/06/01 06:56:28;;;;;;;8.40;2.77;;;;;;;;;;4999732;28;20531;-53
2022/06/01 06:59:01;;;;;;;10.65;2.70;;;;;;;;;;4998503;28;20062;-66
2022/06/01 07:01:28;;;;;;;7.87;2.67;;;;;;;;;;4998881;28;20057;-60
2022/06/01 07:03:55;;;;;;;7.20;2.50;;;;;;;;;;5001203;28;20287;-66
2022/06/01 07:06:29;;;;;;;9.52;2.72;;;;;;;;;;5000006;28;20144;-66
2022/06/01 07:08:56;;;;;;;6.93;2.50;;;;;;;;;;4994414;28;20069;-66
2022/06/01 07:11:24;;;;;;;8.05;3.08;;;;;;;;;;4998676;28;20081;-66
2022/06/01 07:13:58;;;;;;;6.60;2.50;;;;;;;;;;5002011;28;20054;-66
2022/06/01 07:16:27;;;;;;;5.55;2.60;;;;;;;;;;5003891;28;20088;-66
2022/06/01 07:18:55;;;;;;;5.43;2.40;;;;;;;;;;5007262;28;20046;-63
2022/06/01 07:21:28;;;;;;;9.18;3.05;;;;;;;;;;5004274;28;20057;-66
2022/06/01 07:23:58;;;;;;;6.68;2.20;;;;;;;;;;5004076;28;20057;-66
2022/06/01 07:26:26;;;;;;;4.25;1.90;;;;;;;;;;5001482;28;20511;-67
2022/06/01 07:28:59;;;;;;;4.65;2.13;;;;;;;;;;5005043;28;20113;-67
2022/06/01 07:31:26;;;;;;;9.60;2.20;;;;;;;;;;4998722;28;20085;-65
2022/06/01 07:33:53;;;;;;;5.95;2.53;;;;;;;;;;5001333;28;20050;-66
2022/06/01 07:36:27;;;;;;;4.45;2.10;;;;;;;;;;5002579;28;20623;-67
2022/06/01 07:44:32;;;;;;;7.50;2.20;;;;;;;;;;5000988;28;20046;-60
2022/06/01 07:47:19;;;;;;;6.70;2.13;;;;;;;;;;5012180;28;20184;-60
2022/06/01 07:50:12;;;;;;;3.38;2.30;;;;;;;;;;5021295;28;20129;-60
2022/06/01 07:53:07;;;;;;;5.03;2.20;;;;;;;;;;5020895;28;20064;-60
2022/06/01 07:55:34;;;;;;;8.82;2.25;;;;;;;;;;5020346;28;20089;-60
2022/06/01 07:58:08;;;;;;;4.65;2.30;;;;;;;;;;5023110;28;20085;-60
2022/06/01 08:00:34;;;;;;;4.78;2.22;;;;;;;;;;5021464;28;20093;-62
2022/06/01 08:03:01;;;;;;;5.93;2.00;;;;;;;;;;5024512;28;20436;-62
2022/06/01 08:05:34;;;;;;;6.25;1.95;;;;;;;;;;5012828;28;20088;-62
2022/06/01 08:08:00;;;;;;;7.47;2.10;;;;;;;;;;5020482;28;20087;-63
2022/06/01 08:10:27;;;;;;;7.72;1.90;;;;;;;;;;5020125;28;20095;-62
2022/06/01 08:13:06;;;;;;;3.50;1.85;;;;;;;;;;5018022;28;20085;-62
2022/06/01 08:15:35;;;;;;;4.45;1.65;;;;;;;;;;5018596;28;20054;-58
2022/06/01 08:18:09;;;;;;;5.20;1.75;;;;;;;;;;5022322;28;20140;-67
2022/06/01 08:20:36;;;;;;;5.22;2.10;;;;;;;;;;5020083;28;20068;-68
2022/06/01 08:23:03;;;;;;;3.92;1.95;;;;;;;;;;5020098;28;20132;-68
2022/06/01 08:25:37;;;;;;;7.25;1.88;;;;;;;;;;5021994;28;20054;-68
2022/06/01 08:28:04;;;;;;;6.70;1.70;;;;;;;;;;5021517;28;20085;-68
2022/06/01 08:30:31;;;;;;;5.47;1.67;;;;;;;;;;5020269;28;20065;-67
2022/06/01 08:33:05;;;;;;;3.08;1.40;;;;;;;;;;5022738;28;20084;-67
2022/06/01 08:35:33;;;;;;;4.78;1.70;;;;;;;;;;5005252;28;20112;-61
2022/06/01 08:38:00;;;;;;;5.28;1.88;;;;;;;;;;5022506;28;20060;-56
2022/06/01 08:40:45;;;;;;;11.18;1.77;;;;;;;;;;5021435;28;20545;-56
2022/06/01 08:43:12;;;;;;;4.00;1.80;;;;;;;;;;5011364;28;20089;-53
2022/06/01 08:45:48;;;;;;;7.35;2.05;;;;;;;;;;5021497;28;20061;-55
2022/06/01 08:48:38;;;;;;;5.97;1.90;;;;;;;;;;5014321;28;20085;-56
2022/06/01 08:51:11;;;;;;;4.97;1.60;;;;;;;;;;5001062;28;20528;-54
2022/06/01 08:53:38;;;;;;;9.60;1.67;;;;;;;;;;5002306;28;20054;-68
2022/06/01 08:56:10;;;;;;;4.57;1.40;;;;;;;;;;5002646;28;20100;-60
2022/06/01 08:58:54;;;;;;;4.78;1.88;;;;;;;;;;4997120;28;20568;-60
2022/06/01 09:01:47;;;;;;;3.55;1.80;;;;;;;;;;4999089;28;20141;-61
2022/06/01 09:04:25;;;;;;;2.95;1.55;;;;;;;;;;5000953;28;20050;-61
2022/06/01 09:06:57;;;;;;;5.55;1.70;;;;;;;;;;5000130;28;20445;-60
2022/06/01 09:09:30;;;;;;;6.78;2.00;;;;;;;;;;4997984;28;20674;-61
2022/06/01 09:11:57;;;;;;;2.65;1.30;;;;;;;;;;4998837;28;20513;-59
2022/06/01 09:14:34;;;;;;;11.25;1.50;;;;;;;;;;4997662;28;20125;-68
2022/06/01 09:17:07;;;;;;;3.42;1.58;;;;;;;;;;4999248;28;20081;-53
2022/06/01 09:22:37;;;;;;;4.25;1.45;;;;;;;;;;4996463;28;20132;-54
2022/06/01 09:25:09;;;;;;;5.50;1.77;;;;;;;;;;4999776;28;20058;-52
2022/06/01 09:27:51;;;;;;;5.00;1.30;;;;;;;;;;5003382;28;20112;-52
2022/06/01 09:30:24;;;;;;;4.15;1.48;;;;;;;;;;5000535;28;20081;-53
2022/06/01 09:33:00;;;;;;;3.63;1.70;;;;;;;;;;5001410;28;20054;-53
2022/06/01 09:35:27;;;;;;;2.80;1.27;;;;;;;;;;4997445;28;20073;-51
2022/06/01 09:37:54;;;;;;;4.95;1.33;;;;;;;;;;4995589;28;20096;-54
2022/06/01 09:40:29;;;;;;;2.88;1.60;;;;;;;;;;5000019;28;20113;-53
2022/06/01 09:42:56;;;;;;;2.70;1.60;;;;;;;;;;5000020;28;20673;-54
2022/06/01 09:45:22;;;;;;;6.03;1.38;;;;;;;;;;5000136;28;20066;-55
2022/06/01 09:48:30;;;;;;;3.88;1.58;;;;;;;;;;5002039;28;20096;-54
2022/06/01 09:51:14;;;;;;;3.40;1.42;;;;;;;;;;4997677;28;20081;-55
2022/06/01 09:53:50;;;;;;;4.95;1.52;;;;;;;;;;5000420;28;20112;-52
2022/06/01 09:56:41;;;;;;;4.03;1.42;;;;;;;;;;5001983;28;20059;-54
2022/06/01 10:06:06;;;;;;;4.63;1.33;;;;;;;;;;5003039;28;20050;-50
2022/06/01 10:08:05;;;;;;;4.78;1.40;;;;;;;;;;4987529;28;20525;-52
2022/06/01 10:10:39;;;;;;;4.82;1.55;;;;;;;;;;4998862;28;20085;-60
2022/06/01 10:13:06;;;;;;;6.70;1.42;;;;;;;;;;5001558;28;20054;-51
2022/06/01 10:15:36;;;;;;;1.52;1.38;;;;;;;;;;4998793;28;20050;-53
2022/06/01 10:18:09;;;;;;;2.55;1.52;;;;;;;;;;4997555;28;20129;-48
2022/06/01 10:20:38;;;;;;;3.95;1.20;;;;;;;;;;5000152;28;20090;-49
2022/06/01 10:23:04;;;;;;;2.83;1.40;;;;;;;;;;4997846;28;20057;-50
2022/06/01 10:25:38;;;;;;;4.80;1.42;;;;;;;;;;4997917;28;20058;-53
2022/06/01 10:28:06;;;;;;;2.55;1.27;;;;;;;;;;4996936;28;20089;-63
2022/06/01 10:30:58;;;;;;;5.13;1.25;;;;;;;;;;4997234;28;20072;-66
2022/06/01 10:33:41;;;;;;;2.80;1.40;;;;;;;;;;4995985;28;20062;-52
2022/06/01 10:36:12;;;;;;;3.15;1.13;;;;;;;;;;5001500;28;20105;-50
2022/06/01 10:38:52;;;;;;;1.63;1.02;;;;;;;;;;4997504;28;20061;-51
2022/06/01 10:41:24;;;;;;;3.17;1.30;;;;;;;;;;4997474;28;20061;-51
2022/06/01 10:43:59;;;;;;;1.88;1.08;;;;;;;;;;5000029;28;20054;-49
2022/06/01 10:46:32;;;;;;;5.13;1.52;;;;;;;;;;4995464;28;20069;-50
2022/06/01 10:49:33;;;;;;;5.57;1.48;;;;;;;;;;4999370;28;20392;-66
2022/06/01 10:52:03;;;;;;;3.90;1.20;;;;;;;;;;4995939;28;20062;-50
2022/06/01 10:54:52;;;;;;;2.47;1.17;;;;;;;;;;5002455;28;20057;-51
2022/06/01 10:57:19;;;;;;;3.95;1.25;;;;;;;;;;4997583;28;20054;-49
2022/06/01 10:59:52;;;;;;;11.55;1.90;;;;;;;;;;4998800;28;20137;-49
2022/06/01 11:02:25;;;;;;;5.20;1.08;;;;;;;;;;4997953;28;20081;-52
2022/06/01 11:05:13;;;;;;;2.30;1.10;;;;;;;;;;4999597;28;20460;-51
2022/06/01 11:07:51;;;;;;;;;;;;;;;;;;4999646;28;20497;-53
2022/06/01 11:10:24;;;;;;;2.78;1.23;;;;;;;;;;4999896;28;19929;-49
2022/06/01 11:12:57;;;;;;;3.00;1.40;;;;;;;;;;4998949;28;20081;-48
2022/06/01 11:15:33;;;;;;;3.88;1.55;;;;;;;;;;4998693;28;20616;-51
2022/06/01 11:18:06;;;;;;;3.28;1.17;;;;;;;;;;5001160;28;20049;-50
2022/06/01 11:20:39;;;;;;;4.85;1.45;;;;;;;;;;4997794;28;20216;-52
2022/06/01 11:23:14;;;;;;;1.90;1.00;;;;;;;;;;4996024;28;20058;-49
2022/06/01 11:26:02;;;;;;;1.38;1.00;;;;;;;;;;5001786;28;20064;-56
2022/06/01 11:28:38;;;;;;;2.30;1.33;;;;;;;;;;4997342;28;20548;-62
2022/06/01 11:31:12;;;;;;;3.72;1.48;;;;;;;;;;4996887;28;20098;-62
2022/06/01 11:33:59;;;;;;;4.80;1.20;;;;;;;;;;4996466;28;20513;-62
2022/06/01 11:36:51;;;;;;;2.92;1.20;;;;;;;;;;5002607;28;20094;-62
2022/06/01 11:39:23;;;;;;;4.30;1.00;;;;;;;;;;4997417;28;20408;-63
2022/06/01 11:42:08;;;;;;;2.60;1.48;;;;;;;;;;4996916;28;20461;-63
2022/06/01 11:44:36;;;;;;;5.65;1.10;;;;;;;;;;4998547;28;20133;-60
2022/06/01 11:47:13;;;;;;;2.28;1.40;;;;;;;;;;4998642;28;20085;-60
2022/06/01 11:49:51;;;;;;;5.40;1.20;;;;;;;;;;5000197;28;20096;-61
2022/06/01 11:52:24;;;;;;;5.65;1.45;;;;;;;;;;4978769;28;20086;-60
2022/06/01 11:54:57;;;;;;;7.38;1.38;;;;;;;;;;4996207;28;20521;-61
2022/06/01 11:57:25;;;;;;;2.13;1.13;;;;;;;;;;4994265;28;20096;-61
2022/06/01 12:00:07;;;;;;;3.38;1.73;;;;;;;;;;4999602;28;20091;-60
2022/06/01 12:02:40;;;;;;;4.80;1.42;;;;;;;;;;5000566;28;20077;-60
2022/06/01 12:05:13;;;;;;;3.30;1.23;;;;;;;;;;5000936;28;20572;-64
2022/06/01 12:07:46;;;;;;;2.75;1.30;;;;;;;;;;5002303;28;20105;-60
2022/06/01 12:10:24;;;;;;;4.18;1.50;;;;;;;;;;4990456;28;20078;-60
2022/06/01 12:12:58;;;;;;;3.70;1.40;;;;;;;;;;5002669;28;20580;-60
2022/06/01 12:15:32;;;;;;;2.00;1.45;;;;;;;;;;5002701;28;20090;-60
2022/06/01 12:18:07;;;;;;;3.70;1.20;;;;;;;;;;5002499;28;20080;-59
2022/06/01 12:20:34;;;;;;;3.97;1.25;;;;;;;;;;5000514;28;20081;-60
2022/06/01 12:29:04;;;;;;;3.50;1.30;;;;;;;;;;5003652;28;20108;-63
2022/06/01 12:31:39;;;;;;;4.80;1.42;;;;;;;;;;4999528;28;20081;-63
2022/06/01 12:34:11;;;;;;;5.53;1.40;;;;;;;;;;4999974;28;20050;-63
2022/06/01 12:36:48;;;;;;;4.22;1.30;;;;;;;;;;4998920;28;20105;-63
2022/06/01 12:39:19;;;;;;;1.75;1.20;;;;;;;;;;5000145;28;20051;-64
2022/06/01 12:41:52;;;;;;;;;;;;;;;;;;5003719;28;20096;-60
2022/06/01 12:44:19;;;;;;;1.95;0.90;;;;;;;;;;5000061;28;19995;-67
2022/06/01 12:46:51;;;;;;;3.65;1.30;;;;;;;;;;5001710;28;20086;-63
2022/06/01 12:49:38;;;;;;;4.15;1.40;;;;;;;;;;5000121;28;20061;-64
2022/06/01 12:52:15;;;;;;;4.97;1.30;;;;;;;;;;5002306;28;20047;-64
2022/06/01 12:54:57;;;;;;;1.63;1.10;;;;;;;;;;5000245;28;20088;-64
2022/06/01 12:57:30;;;;;;;4.85;1.30;;;;;;;;;;5000079;28;20058;-64
2022/06/01 13:00:11;;;;;;;1.08;0.98;;;;;;;;;;5001171;28;20108;-64
2022/06/01 13:02:38;;;;;;;1.98;1.10;;;;;;;;;;4998887;28;20634;-64
2022/06/01 13:05:14;;;;;;;2.70;1.05;;;;;;;;;;4997894;28;20190;-53
2022/06/01 13:07:42;;;;;;;1.50;1.00;;;;;;;;;;5003968;28;20494;-52
2022/06/01 13:10:09;;;;;;;1.45;0.85;;;;;;;;;;5000460;28;20104;-54
2022/06/01 13:12:42;;;;;;;3.40;1.42;;;;;;;;;;4996919;28;20077;-52
2022/06/01 13:15:16;;;;;;;1.65;1.17;;;;;;;;;;4998732;28;20084;-52
2022/06/01 13:17:54;;;;;;;2.63;1.48;;;;;;;;;;5000183;28;20105;-56
2022/06/01 13:20:22;;;;;;;3.25;1.50;;;;;;;;;;4999506;28;20496;-67
2022/06/01 13:22:50;;;;;;;1.23;1.13;;;;;;;;;;4993496;28;20130;-60
2022/06/01 13:25:27;;;;;;;3.53;1.30;;;;;;;;;;5001986;28;20089;-60
2022/06/01 13:27:54;;;;;;;4.20;1.33;;;;;;;;;;5001393;28;20172;-60
2022/06/01 13:30:21;;;;;;;3.88;1.10;;;;;;;;;;4999414;28;20057;-60
2022/06/01 13:32:57;;;;;;;5.22;1.33;;;;;;;;;;5000673;28;20054;-60
2022/06/01 13:35:34;;;;;;;3.05;1.40;;;;;;;;;;5000854;28;20085;-60
2022/06/01 13:38:15;;;;;;;4.57;1.27;;;;;;;;;;4998194;28;20543;-60
2022/06/01 13:40:45;;;;;;;5.05;1.40;;;;;;;;;;4998590;28;20148;-63
2022/06/01 13:43:19;;;;;;;9.80;1.60;;;;;;;;;;5000659;28;20050;-60
2022/06/01 13:45:48;;;;;;;2.90;1.52;;;;;;;;;;4999926;28;20457;-60
2022/06/01 13:48:33;;;;;;;3.20;1.23;;;;;;;;;;5002511;28;20062;-60
2022/06/01 13:51:15;;;;;;;4.22;1.23;;;;;;;;;;5000483;28;20108;-60
2022/06/01 13:53:43;;;;;;;4.47;1.38;;;;;;;;;;5001388;28;20093;-60
2022/06/01 13:56:22;;;;;;;3.13;1.38;;;;;;;;;;4996363;28;20426;-60
2022/06/01 13:58:53;;;;;;;3.08;1.30;;;;;;;;;;5001197;28;20105;-60
2022/06/01 14:01:30;;;;;;;3.75;1.48;;;;;;;;;;4998162;28;20153;-53
2022/06/01 14:03:58;;;;;;;3.80;1.33;;;;;;;;;;4999864;28;20054;-52
2022/06/01 14:06:39;;;;;;;3.03;1.60;;;;;;;;;;4999539;28;20464;-52
2022/06/01 14:09:22;;;;;;;3.88;1.10;;;;;;;;;;5000500;28;20053;-54
2022/06/01 14:11:48;;;;;;;2.53;1.25;;;;;;;;;;4994618;28;20077;-53
2022/06/01 14:14:26;;;;;;;2.08;1.35;;;;;;;;;;5000482;28;20090;-53
2022/06/01 14:16:54;;;;;;;4.05;1.67;;;;;;;;;;4995328;28;20529;-49
2022/06/01 14:19:21;;;;;;;4.03;1.50;;;;;;;;;;4995391;28;20395;-63
2022/06/01 14:21:55;;;;;;;4.63;1.50;;;;;;;;;;5000443;28;20057;-59
2022/06/01 14:24:22;;;;;;;3.75;1.80;;;;;;;;;;4997019;28;20078;-59
2022/06/01 14:29:40;;;;;;;5.82;1.60;;;;;;;;;;4997304;28;20462;-60
2022/06/01 14:32:08;;;;;;;7.28;1.88;;;;;;;;;;4997379;28;20181;-59
2022/06/01 14:34:34;;;;;;;4.90;1.50;;;;;;;;;;4999782;28;20435;-59
2022/06/01 14:39:45;;;;;;;4.35;1.15;;;;;;;;;;4995095;23;20090;-51
2022/06/01 14:42:18;;;;;;;5.07;1.38;;;;;;;;;;4979452;28;20077;-54
2022/06/01 14:44:45;;;;;;;2.65;1.48;;;;;;;;;;4977737;28;20062;-47
2022/06/01 14:47:12;;;;;;;2.63;1.30;;;;;;;;;;4973747;28;20109;-48
2022/06/01 14:49:44;;;;;;;3.72;1.27;;;;;;;;;;4979096;28;20069;-51
2022/06/01 14:52:13;;;;;;;3.78;1.38;;;;;;;;;;4976948;28;20159;-53
2022/06/01 14:54:40;;;;;;;4.10;1.33;;;;;;;;;;4976083;28;20047;-61
2022/06/01 14:57:12;;;;;;;3.20;1.30;;;;;;;;;;4978950;28;20132;-65
2022/06/01 14:59:40;;;;;;;4.10;1.13;;;;;;;;;;4978110;28;20568;-65
2022/06/01 15:02:08;;;;;;;3.47;1.20;;;;;;;;;;4979072;28;20245;-64
2022/06/01 15:04:42;;;;;;;2.58;1.20;;;;;;;;;;4976036;28;20093;-65
2022/06/01 15:07:15;;;;;;;4.50;1.50;;;;;;;;;;4980576;28;20094;-64
2022/06/01 15:09:49;;;;;;;2.95;1.50;;;;;;;;;;4973509;28;20646;-65
2022/06/01 15:12:15;;;;;;;1.63;1.20;;;;;;;;;;4979833;28;20121;-61
2022/06/01 15:14:42;;;;;;;4.05;2.30;;;;;;;;;;4979910;28;20090;-66
2022/06/01 15:17:20;;;;;;;5.47;1.90;;;;;;;;;;4978042;28;20073;-66
2022/06/01 15:19:48;;;;;;;4.72;1.50;;;;;;;;;;4977184;28;20384;-66
2022/06/01 15:22:14;;;;;;;2.97;1.63;;;;;;;;;;4977672;28;20140;-67
2022/06/01 15:24:48;;;;;;;3.03;1.30;;;;;;;;;;4977713;28;20141;-67
2022/06/01 15:27:17;;;;;;;3.47;1.33;;;;;;;;;;4977700;28;20043;-66
2022/06/01 15:41:04;;;;;;;4.45;1.73;;;;;;;;;;4981878;28;20620;-64
2022/06/01 15:43:38;;;;;;;2.53;1.40;;;;;;;;;;4980809;28;20958;-64
2022/06/01 15:46:11;;;;;;;4.60;1.95;;;;;;;;;;4970261;28;21707;-65
2022/06/01 15:48:46;;;;;;;3.53;1.70;;;;;;;;;;4980556;28;20043;-51
2022/06/01 15:51:13;;;;;;;3.22;1.48;;;;;;;;;;4980083;28;20086;-60
2022/06/01 15:53:39;;;;;;;3.00;1.50;;;;;;;;;;4987588;28;20054;-60